Time;durP1;ratioP1;P1;durP2;ratioP2;P2;SDS_P1;SDS_P2;PMS_P1;PMS_P2;Temp;Humidity;BMP_temperature;BMP_pressure;BME280_temperature;BME280_humidity;BME280_pressure;Samples;Min_cycle;Max_cycle;Signal;HPM_P1;HPM_P2
2021/10/24 00:02:08;;;;;;;25.70;13.03;;;;;;;2.80;77.89;102485.03;1787203;79;21023;-88
2021/10/24 00:04:35;;;;;;;15.15;8.38;;;;;;;2.80;77.89;102482.84;1787303;80;21548;-87
2021/10/24 00:07:02;;;;;;;17.98;9.43;;;;;;;2.80;77.87;102489.34;1787183;79;21807;-87
2021/10/24 00:09:29;;;;;;;14.85;8.73;;;;;;;2.79;77.91;102492.70;1787078;80;21532;-86
2021/10/24 00:11:55;;;;;;;21.12;9.70;;;;;;;2.77;77.91;102494.27;1787242;80;21102;-86
2021/10/24 00:14:25;;;;;;;14.78;8.20;;;;;;;2.76;77.93;102495.03;1787222;79;21015;-86
2021/10/24 00:16:54;;;;;;;16.50;9.20;;;;;;;2.73;77.97;102495.30;1787447;79;21113;-86
2021/10/24 00:19:21;;;;;;;15.48;7.37;;;;;;;2.72;77.98;102494.80;1787465;80;21829;-86
2021/10/24 00:21:48;;;;;;;12.73;7.25;;;;;;;2.71;78.01;102490.77;1786968;79;21095;-86
2021/10/24 00:24:15;;;;;;;14.05;6.78;;;;;;;2.70;78.01;102498.03;1787105;79;21063;-86
2021/10/24 00:26:42;;;;;;;16.37;7.12;;;;;;;2.68;78.07;102495.69;1795777;79;21031;-86
2021/10/24 00:29:09;;;;;;;17.20;9.65;;;;;;;2.66;78.15;102489.05;1778414;80;21032;-86
2021/10/24 00:31:36;;;;;;;14.98;7.75;;;;;;;2.66;78.11;102501.15;1811768;79;22080;-86
2021/10/24 00:34:03;;;;;;;15.00;7.67;;;;;;;2.64;78.14;102514.41;1778474;79;21038;-87
2021/10/24 00:36:30;;;;;;;12.60;7.65;;;;;;;2.63;78.17;102517.81;1811976;79;21066;-87
2021/10/24 00:38:56;;;;;;;15.83;7.33;;;;;;;2.62;78.21;102512.08;1778561;80;21047;-86
2021/10/24 00:41:25;;;;;;;16.40;7.50;;;;;;;2.61;78.21;102512.84;1811379;79;21082;-87
2021/10/24 00:43:52;;;;;;;14.40;7.15;;;;;;;2.60;78.23;102513.23;1778710;79;22570;-88
2021/10/24 00:46:19;;;;;;;10.55;5.62;;;;;;;2.60;78.26;102512.34;1812068;79;21103;-88
2021/10/24 00:48:46;;;;;;;11.93;6.08;;;;;;;2.61;78.34;102516.38;1778670;80;21056;-87
2021/10/24 00:51:13;;;;;;;13.50;6.60;;;;;;;2.61;78.38;102518.04;1778812;80;21083;-87
2021/10/24 00:53:40;;;;;;;11.00;6.03;;;;;;;2.61;78.34;102521.94;1778932;80;21063;-88
2021/10/24 00:56:07;;;;;;;12.95;7.85;;;;;;;2.60;78.32;102530.14;1778888;80;21748;-86
2021/10/24 00:58:34;;;;;;;12.30;6.12;;;;;;;2.60;78.30;102533.14;1812455;79;21000;-86
2021/10/24 01:01:01;;;;;;;11.57;6.67;;;;;;;2.57;78.37;102536.36;1779179;80;21055;-87
2021/10/24 01:03:29;;;;;;;10.58;6.12;;;;;;;2.57;78.42;102540.26;1812375;79;21047;-87
2021/10/24 01:05:59;;;;;;;11.20;6.35;;;;;;;2.59;78.48;102542.63;1756320;80;21102;-86
2021/10/24 01:08:25;;;;;;;12.25;5.65;;;;;;;2.60;78.46;102551.33;1778838;80;22844;-86
2021/10/24 01:10:52;;;;;;;10.98;5.72;;;;;;;2.60;78.46;102548.34;1812251;79;21047;-86
2021/10/24 01:13:19;;;;;;;11.48;5.50;;;;;;;2.60;78.42;102545.73;1778990;80;21548;-86
2021/10/24 01:15:46;;;;;;;13.38;5.70;;;;;;;2.60;78.43;102550.94;1812276;79;21003;-85
2021/10/24 01:18:13;;;;;;;27.90;12.35;;;;;;;2.60;78.39;102548.73;1812031;79;21062;-86
2021/10/24 01:20:40;;;;;;;22.90;9.18;;;;;;;2.58;78.41;102544.70;1812075;79;21751;-86
2021/10/24 01:23:09;;;;;;;18.77;8.85;;;;;;;2.57;78.41;102550.66;1752782;79;21324;-86
2021/10/24 01:25:35;;;;;;;15.60;7.25;;;;;;;2.56;78.38;102547.55;1811758;79;20999;-86
2021/10/24 01:28:02;;;;;;;9.55;5.58;;;;;;;2.55;78.35;102547.42;1778197;79;21662;-86
2021/10/24 01:30:29;;;;;;;12.50;5.83;;;;;;;2.51;78.38;102544.54;1811847;79;21027;-86
2021/10/24 01:32:55;;;;;;;11.45;5.58;;;;;;;2.50;78.44;102551.84;1778297;79;21861;-87
2021/10/24 01:35:22;;;;;;;9.63;5.03;;;;;;;2.51;78.47;102554.94;1812029;79;21054;-87
2021/10/24 01:37:49;;;;;;;10.23;5.60;;;;;;;2.50;78.45;102550.54;1778484;80;21059;-86
2021/10/24 01:40:20;;;;;;;10.98;5.08;;;;;;;2.50;78.47;102558.73;1811951;79;21074;-86
2021/10/24 01:42:54;;;;;;;9.60;5.25;;;;;;;2.50;78.51;102560.03;1811530;78;21031;-87
2021/10/24 01:45:23;;;;;;;8.05;4.80;;;;;;;2.49;78.50;102548.70;1778711;80;21819;-86
2021/10/24 01:47:51;;;;;;;7.85;4.55;;;;;;;2.51;78.54;102554.04;1778648;80;21035;-87
2021/10/24 01:50:17;;;;;;;6.80;4.42;;;;;;;2.51;78.60;102552.34;1778688;79;21052;-87
2021/10/24 01:52:44;;;;;;;9.68;4.45;;;;;;;2.52;78.59;102553.28;1812025;79;21035;-87
2021/10/24 01:55:12;;;;;;;9.55;4.40;;;;;;;2.53;78.61;102557.31;1778754;80;21159;-87
2021/10/24 01:57:41;;;;;;;9.35;4.12;;;;;;;2.53;78.61;102554.72;1812098;79;21754;-87
2021/10/24 02:00:09;;;;;;;10.85;4.90;;;;;;;2.54;78.64;102560.81;1811918;79;21070;-87
2021/10/24 02:02:36;;;;;;;7.97;4.20;;;;;;;2.55;78.63;102566.52;1778535;79;21075;-86
2021/10/24 02:05:03;;;;;;;8.03;4.53;;;;;;;2.56;78.69;102562.25;1812212;79;21635;-86
2021/10/24 02:07:29;;;;;;;7.65;3.95;;;;;;;2.56;78.62;102560.55;1778815;80;21062;-86
2021/10/24 02:09:56;;;;;;;7.00;3.85;;;;;;;2.55;78.64;102562.62;1812002;79;21740;-86
2021/10/24 02:12:22;;;;;;;5.78;4.05;;;;;;;2.55;78.66;102562.62;1778511;79;21043;-86
2021/10/24 02:14:52;;;;;;;7.85;4.37;;;;;;;2.55;78.65;102563.91;1778729;79;21078;-87
2021/10/24 02:17:19;;;;;;;6.33;3.90;;;;;;;2.56;78.66;102559.66;1812233;79;21529;-85
2021/10/24 02:19:45;;;;;;;5.90;3.65;;;;;;;2.56;78.70;102563.16;1812159;79;21556;-86
2021/10/24 02:22:12;;;;;;;5.75;4.15;;;;;;;2.54;78.66;102551.72;1778563;80;22556;-87
2021/10/24 02:24:39;;;;;;;6.60;3.75;;;;;;;2.57;78.67;102561.06;1812194;79;21107;-87
2021/10/24 02:27:06;;;;;;;6.28;3.85;;;;;;;2.57;78.68;102561.45;1778595;80;21471;-87
2021/10/24 02:29:33;;;;;;;8.35;4.28;;;;;;;2.57;78.66;102564.95;1778679;80;21047;-88
2021/10/24 02:31:59;;;;;;;6.45;3.58;;;;;;;2.59;78.71;102566.03;1812096;79;21592;-87
2021/10/24 02:34:26;;;;;;;5.95;3.85;;;;;;;2.59;78.67;102563.44;1778532;80;22641;-86
2021/10/24 02:36:53;;;;;;;6.05;3.60;;;;;;;2.60;78.63;102563.03;1811949;79;21039;-86
2021/10/24 02:39:20;;;;;;;6.58;3.60;;;;;;;2.59;78.64;102563.80;1811981;79;21069;-88
2021/10/24 02:41:47;;;;;;;8.53;4.08;;;;;;;2.60;78.67;102568.23;1812131;79;20983;-85
2021/10/24 02:44:14;;;;;;;7.45;3.62;;;;;;;2.60;78.60;102573.03;1778850;79;21060;-86
2021/10/24 02:46:43;;;;;;;8.25;3.77;;;;;;;2.60;78.54;102568.23;1734320;80;21836;-85
2021/10/24 02:49:09;;;;;;;8.98;4.50;;;;;;;2.58;78.51;102572.39;1778850;80;22146;-86
2021/10/24 02:51:37;;;;;;;5.50;3.40;;;;;;;2.58;78.48;102577.59;1812501;79;21046;-86
2021/10/24 02:54:04;;;;;;;5.33;3.75;;;;;;;2.55;78.47;102576.02;1779034;80;21098;-84
2021/10/24 02:56:30;;;;;;;19.85;10.10;;;;;;;2.55;78.50;102577.31;1812603;79;21191;-85
2021/10/24 02:58:59;;;;;;;28.65;13.85;;;;;;;2.52;78.48;102581.47;1756155;80;21679;-86
2021/10/24 03:01:26;;;;;;;21.45;11.65;;;;;;;2.53;78.48;102578.47;1812101;79;21086;-85
2021/10/24 03:03:53;;;;;;;13.78;7.65;;;;;;;2.53;78.51;102580.71;1778441;79;21024;-86
2021/10/24 03:06:19;;;;;;;19.87;10.00;;;;;;;2.53;78.46;102574.58;1811972;79;21105;-86
2021/10/24 03:08:46;;;;;;;87.70;42.33;;;;;;;2.53;78.51;102575.87;1812121;79;21093;-87
2021/10/24 03:11:13;;;;;;;119.40;57.55;;;;;;;2.52;78.45;102580.57;1778779;80;21789;-88
2021/10/24 03:13:40;;;;;;;109.07;52.93;;;;;;;2.48;78.36;102582.39;1756659;80;21067;-88
2021/10/24 03:16:06;;;;;;;69.03;33.10;;;;;;;2.43;78.31;102578.47;1812032;79;21038;-87
2021/10/24 03:18:33;;;;;;;45.38;24.05;;;;;;;2.39;78.30;102579.88;1778837;80;21505;-87
2021/10/24 03:21:00;;;;;;;66.02;32.48;;;;;;;2.36;78.23;102578.70;1812073;79;21591;-86
2021/10/24 03:23:27;;;;;;;108.15;53.65;;;;;;;2.32;78.25;102579.72;1778437;79;21757;-87
2021/10/24 03:25:55;;;;;;;134.55;70.78;;;;;;;2.27;78.22;102578.80;1778259;80;21055;-86
2021/10/24 03:28:22;;;;;;;84.30;49.50;;;;;;;2.27;78.28;102586.59;1811829;78;21027;-87
2021/10/24 03:30:49;;;;;;;86.60;52.40;;;;;;;2.25;78.24;102590.75;1778619;79;21651;-86
2021/10/24 03:33:16;;;;;;;55.08;34.65;;;;;;;2.21;78.26;102589.56;1778651;80;21051;-86
2021/10/24 03:35:44;;;;;;;54.10;33.53;;;;;;;2.18;78.12;102590.98;1778882;80;21775;-86
2021/10/24 03:38:11;;;;;;;43.73;26.37;;;;;;;2.09;78.05;102588.50;1778707;79;21127;-87
2021/10/24 03:40:40;;;;;;;95.60;49.95;;;;;;;2.03;78.03;102587.96;1812022;79;21098;-87
2021/10/24 03:43:07;;;;;;;46.35;25.30;;;;;;;1.99;78.16;102590.67;1812291;79;21047;-87
2021/10/24 03:45:34;;;;;;;16.52;9.90;;;;;;;1.94;78.05;102587.64;1812172;79;21074;-84
2021/10/24 03:48:00;;;;;;;19.25;11.55;;;;;;;1.89;78.10;102588.01;1778824;80;21816;-85
2021/10/24 03:50:27;;;;;;;24.82;14.03;;;;;;;1.86;78.18;102598.11;1778634;79;21463;-83
2021/10/24 03:53:04;;;;;;;34.08;18.10;;;;;;;1.84;78.21;102600.95;1811535;79;21062;-87
2021/10/24 03:55:33;;;;;;;25.25;14.28;;;;;;;1.77;78.17;102609.00;1778714;80;21047;-86
2021/10/24 03:58:04;;;;;;;22.25;12.20;;;;;;;1.72;78.21;102609.47;1778760;80;21054;-88
2021/10/24 04:00:31;;;;;;;15.98;8.98;;;;;;;1.69;78.25;102606.97;1756933;80;21765;-87
2021/10/24 04:03:00;;;;;;;13.13;6.30;;;;;;;1.65;78.36;102600.63;1778578;79;21055;-85
2021/10/24 04:05:27;;;;;;;12.88;5.92;;;;;;;1.64;78.38;102610.47;1812056;79;21054;-85
2021/10/24 04:07:55;;;;;;;12.23;5.95;;;;;;;1.61;78.37;102611.47;1778229;79;21620;-86
2021/10/24 04:10:24;;;;;;;9.48;5.78;;;;;;;1.61;78.46;102617.06;1778710;80;21580;-86
2021/10/24 04:12:51;;;;;;;10.15;5.45;;;;;;;1.60;78.45;102619.15;1812093;79;21774;-86
2021/10/24 04:15:18;;;;;;;8.95;4.50;;;;;;;1.59;78.54;102623.41;1812025;79;21356;-86
2021/10/24 04:17:45;;;;;;;11.97;5.47;;;;;;;1.59;78.60;102624.70;1778507;80;21047;-86
2021/10/24 04:20:15;;;;;;;10.70;4.72;;;;;;;1.60;78.72;102630.44;1811949;79;21004;-88
2021/10/24 04:22:42;;;;;;;8.35;4.50;;;;;;;1.60;78.79;102628.23;1812355;79;21054;-85
2021/10/24 04:25:10;;;;;;;6.47;4.42;;;;;;;1.63;78.83;102630.69;1811939;79;21878;-86
2021/10/24 04:27:41;;;;;;;9.98;5.08;;;;;;;1.63;78.81;102629.39;1780855;79;21082;-85
2021/10/24 04:30:10;;;;;;;9.18;5.75;;;;;;;1.63;78.75;102632.39;1790540;79;21050;-87
2021/10/24 04:32:40;;;;;;;8.38;5.53;;;;;;;1.60;78.73;102634.33;1790597;79;21059;-83
2021/10/24 04:35:07;;;;;;;11.80;5.42;;;;;;;1.60;78.74;102628.23;1790829;79;21035;-85
2021/10/24 04:37:36;;;;;;;9.88;5.35;;;;;;;1.59;78.76;102631.59;1790999;79;21744;-86
2021/10/24 04:40:05;;;;;;;8.63;5.17;;;;;;;1.58;78.73;102629.75;1790976;79;21001;-86
2021/10/24 04:42:32;;;;;;;9.68;5.67;;;;;;;1.58;78.78;102631.05;1791019;79;21054;-86
2021/10/24 04:44:58;;;;;;;5.62;4.25;;;;;;;1.58;78.73;102633.64;1759238;81;21082;-87
2021/10/24 04:47:25;;;;;;;9.00;4.75;;;;;;;1.56;78.76;102630.93;1790993;79;21062;-86
2021/10/24 04:49:52;;;;;;;9.65;5.15;;;;;;;1.57;78.78;102631.84;1790722;79;21744;-86
2021/10/24 04:52:18;;;;;;;7.15;4.53;;;;;;;1.58;78.81;102632.34;1790572;80;21055;-80
2021/10/24 04:54:45;;;;;;;7.72;4.62;;;;;;;1.58;78.80;102629.75;1770339;81;21073;-82
2021/10/24 04:57:12;;;;;;;9.28;4.97;;;;;;;1.57;78.85;102632.73;1758979;81;21137;-85
2021/10/24 04:59:39;;;;;;;9.38;4.92;;;;;;;1.57;78.83;102635.33;1757557;81;21086;-85
2021/10/24 05:02:06;;;;;;;10.48;4.83;;;;;;;1.58;78.82;102631.98;1790130;80;21740;-85
2021/10/24 05:04:33;;;;;;;11.18;5.30;;;;;;;1.56;78.77;102633.53;1790288;79;21093;-84
2021/10/24 05:06:59;;;;;;;8.05;5.03;;;;;;;1.53;78.69;102634.53;1790377;79;21027;-85
2021/10/24 05:09:26;;;;;;;9.68;5.17;;;;;;;1.51;78.81;102633.09;1770030;81;21121;-84
2021/10/24 05:11:53;;;;;;;10.35;5.67;;;;;;;1.50;78.81;102631.28;1758501;80;21035;-85
2021/10/24 05:14:19;;;;;;;7.78;4.65;;;;;;;1.52;78.83;102635.29;1756972;81;21611;-85
2021/10/24 05:16:46;;;;;;;11.10;5.37;;;;;;;1.51;78.92;102633.09;1789453;80;21671;-84
2021/10/24 05:19:18;;;;;;;9.08;5.45;;;;;;;1.53;78.97;102646.21;1722598;83;21051;-88
2021/10/24 05:21:45;;;;;;;8.10;5.25;;;;;;;1.53;78.98;102639.72;1735516;80;21050;-89
2021/10/24 05:24:12;;;;;;;10.18;5.90;;;;;;;1.54;78.95;102641.56;1791013;80;21098;-84
2021/10/24 05:26:38;;;;;;;7.85;5.03;;;;;;;1.53;78.93;102644.52;1790724;79;21743;-84
2021/10/24 05:29:05;;;;;;;9.25;5.20;;;;;;;1.55;79.05;102648.55;1768274;81;21133;-85
2021/10/24 05:31:32;;;;;;;9.35;5.15;;;;;;;1.58;79.06;102647.91;1752891;81;21086;-81
2021/10/24 05:33:59;;;;;;;11.60;6.28;;;;;;;1.61;79.11;102645.22;1730875;81;21105;-81
2021/10/24 05:36:25;;;;;;;11.35;5.92;;;;;;;1.64;79.14;102650.70;1785927;80;21540;-81
2021/10/24 05:38:52;;;;;;;11.05;5.85;;;;;;;1.68;79.17;102646.31;1789724;79;22669;-81
2021/10/24 05:41:56;;;;;;;10.45;5.20;;;;;;;1.73;79.19;102654.14;1790140;79;21289;-81
2021/10/24 05:43:59;;;;;;;9.73;5.25;;;;;;;1.78;79.16;102656.23;1733796;80;21066;-81
2021/10/24 05:46:26;;;;;;;9.83;5.35;;;;;;;1.82;79.18;102672.25;1790230;80;21014;-81
2021/10/24 05:48:52;;;;;;;10.58;5.80;;;;;;;1.87;79.18;102656.68;1790188;80;21062;-81
2021/10/24 05:51:19;;;;;;;10.40;6.22;;;;;;;1.92;79.14;102658.41;1790120;80;22578;-81
2021/10/24 05:53:47;;;;;;;12.70;6.37;;;;;;;1.97;79.13;102664.00;1790188;80;21057;-81
2021/10/24 05:56:14;;;;;;;13.30;7.08;;;;;;;2.02;79.15;102661.45;1790323;80;21112;-81
2021/10/24 05:58:42;;;;;;;10.08;5.47;;;;;;;2.06;79.09;102660.55;1786924;80;21111;-81
2021/10/24 06:01:10;;;;;;;10.88;6.00;;;;;;;2.11;79.08;102659.68;1765968;80;21634;-81
2021/10/24 06:03:37;;;;;;;10.78;4.83;;;;;;;2.16;79.08;102661.38;1753364;80;21677;-81
2021/10/24 06:06:03;;;;;;;8.05;5.28;;;;;;;2.21;79.04;102654.91;1790022;79;21075;-81
2021/10/24 06:08:31;;;;;;;9.85;4.83;;;;;;;2.27;79.08;102656.75;1790571;79;21066;-81
2021/10/24 06:11:13;;;;;;;13.10;6.00;;;;;;;2.35;79.11;102666.16;1790420;79;21063;-82
2021/10/24 06:13:28;;;;;;;9.98;5.45;;;;;;;2.41;79.17;102670.59;1788337;79;21030;-81
2021/10/24 06:15:54;;;;;;;12.80;6.55;;;;;;;2.49;79.20;102673.87;1790591;80;21748;-81
2021/10/24 06:18:22;;;;;;;10.38;6.58;;;;;;;2.58;79.24;102677.68;1790578;80;21073;-81
2021/10/24 06:20:49;;;;;;;11.97;6.35;;;;;;;2.66;79.24;102680.16;1790680;80;21034;-81
2021/10/24 06:23:19;;;;;;;19.15;7.83;;;;;;;2.75;79.17;102684.36;1790670;80;21062;-81
2021/10/24 06:25:50;;;;;;;44.13;13.45;;;;;;;2.81;79.17;102691.39;1790562;80;21076;-81
2021/10/24 06:28:17;;;;;;;54.15;15.95;;;;;;;2.90;79.21;102687.89;1789391;79;21159;-81
2021/10/24 06:30:44;;;;;;;31.42;11.95;;;;;;;2.99;79.21;102686.50;1787214;80;21298;-82
2021/10/24 06:33:11;;;;;;;20.32;8.75;;;;;;;3.11;79.43;102686.23;1786870;80;21050;-81
2021/10/24 06:35:38;;;;;;;13.65;6.53;;;;;;;3.22;79.20;102689.77;1787227;80;21061;-81
2021/10/24 06:38:04;;;;;;;11.15;5.87;;;;;;;3.28;79.14;102691.63;1787191;80;21050;-81
2021/10/24 06:40:31;;;;;;;12.33;6.58;;;;;;;3.37;79.06;102697.98;1787117;80;22722;-81
2021/10/24 06:42:58;;;;;;;10.70;5.85;;;;;;;3.44;78.97;102703.33;1786761;80;21065;-81
2021/10/24 06:45:25;;;;;;;12.58;5.83;;;;;;;3.50;78.91;102705.14;1787221;80;21034;-81
2021/10/24 06:47:52;;;;;;;11.12;5.22;;;;;;;3.56;78.88;102703.45;1787045;80;21081;-81
2021/10/24 06:50:18;;;;;;;8.93;5.53;;;;;;;3.62;78.86;102706.20;1787262;80;21050;-81
2021/10/24 06:52:48;;;;;;;13.68;7.10;;;;;;;3.70;78.85;102708.14;1787083;80;21724;-81
2021/10/24 06:55:16;;;;;;;14.68;7.20;;;;;;;3.77;78.80;102705.64;1787083;80;21070;-81
2021/10/24 06:57:53;;;;;;;23.27;11.45;;;;;;;3.85;78.80;102713.73;1786963;80;21098;-81
2021/10/24 07:00:22;;;;;;;24.47;11.38;;;;;;;3.93;78.75;102711.77;1786632;80;21125;-81
2021/10/24 07:02:49;;;;;;;33.45;14.25;;;;;;;4.03;78.73;102719.14;1787181;80;21046;-81
2021/10/24 07:05:16;;;;;;;23.10;11.38;;;;;;;4.13;78.74;102719.91;1787324;80;21772;-86
2021/10/24 07:08:34;;;;;;;19.17;10.45;;;;;;;4.22;78.65;102717.70;1787558;80;21058;-91
2021/10/24 07:11:24;;;;;;;15.03;9.28;;;;;;;4.30;78.66;102717.02;1728254;83;21094;-89
2021/10/24 07:14:43;;;;;;;10.35;7.15;;;;;;;4.45;78.73;102715.66;1598604;89;21124;-90
2021/10/24 07:17:32;;;;;;;31.57;20.80;;;;;;;4.57;78.64;102719.64;1491422;96;21046;-89
2021/10/24 07:20:36;;;;;;;42.43;30.45;;;;;;;4.74;78.51;102716.19;1491437;95;22425;-87
2021/10/24 07:27:36;;;;;;;19.48;12.05;;;;;;;4.99;78.36;102721.64;1443644;99;21133;-95
2021/10/24 07:30:07;;;;;;;19.87;13.78;;;;;;;5.22;78.19;102732.63;1411934;99;21632;-85
2021/10/24 07:32:32;;;;;;;12.58;6.67;;;;;;;5.35;78.16;102735.39;1409993;100;21192;-86
2021/10/24 07:34:59;;;;;;;20.20;14.45;;;;;;;5.48;78.18;102728.13;1410088;101;23170;-85
2021/10/24 07:37:25;;;;;;;15.15;8.40;;;;;;;5.63;78.14;102731.91;1431423;98;21151;-85
2021/10/24 07:39:55;;;;;;;17.85;9.90;;;;;;;5.75;78.02;102729.31;1431593;100;21138;-87
2021/10/24 07:42:25;;;;;;;17.30;9.10;;;;;;;5.87;77.92;102729.73;1431628;100;21535;-86
2021/10/24 07:44:50;;;;;;;12.98;8.53;;;;;;;5.99;77.90;102731.61;1431496;98;21210;-86
2021/10/24 07:47:17;;;;;;;15.10;7.28;;;;;;;6.11;77.78;102725.48;1432052;98;21873;-85
2021/10/24 07:49:44;;;;;;;15.58;7.03;;;;;;;6.19;77.66;102733.48;1410587;101;21160;-86
2021/10/24 07:52:11;;;;;;;25.95;16.55;;;;;;;6.31;77.68;102733.11;1383519;101;21207;-86
2021/10/24 07:54:38;;;;;;;15.83;10.35;;;;;;;6.44;77.60;102737.55;1409906;98;21709;-86
2021/10/24 07:57:06;;;;;;;21.20;12.80;;;;;;;6.58;77.49;102737.23;1479440;96;21668;-86
2021/10/24 07:59:33;;;;;;;11.65;7.37;;;;;;;6.71;77.44;102740.35;1486599;88;21820;-85
2021/10/24 08:02:00;;;;;;;14.55;7.67;;;;;;;6.84;77.34;102736.92;1635753;87;21869;-85
2021/10/24 08:04:27;;;;;;;11.78;6.90;;;;;;;6.99;77.28;102736.70;1613919;87;21666;-84
2021/10/24 08:06:54;;;;;;;28.60;22.85;;;;;;;7.14;77.11;102740.81;1675694;83;21611;-84
2021/10/24 08:09:20;;;;;;;28.23;21.00;;;;;;;7.25;77.06;102738.55;1703312;84;21581;-85
2021/10/24 08:11:48;;;;;;;11.95;8.70;;;;;;;7.39;76.95;102737.82;1673271;84;21199;-85
2021/10/24 08:14:15;;;;;;;18.10;11.30;;;;;;;7.53;76.85;102746.62;1703129;83;21082;-85
2021/10/24 08:16:42;;;;;;;16.42;11.28;;;;;;;7.65;76.78;102746.56;1673279;84;21149;-85
2021/10/24 08:19:08;;;;;;;21.60;17.35;;;;;;;7.78;76.63;102752.25;1703031;83;21088;-85
2021/10/24 08:21:36;;;;;;;15.93;10.98;;;;;;;7.84;76.36;102748.72;1703207;83;21073;-85
2021/10/24 08:24:04;;;;;;;13.25;8.13;;;;;;;7.91;76.42;102753.59;1673296;85;22555;-85
2021/10/24 08:26:31;;;;;;;13.55;9.23;;;;;;;7.97;76.29;102749.16;1702958;83;21574;-85
2021/10/24 08:29:05;;;;;;;13.30;7.53;;;;;;;8.04;76.17;102744.84;1677875;83;21112;-88
2021/10/24 08:31:32;;;;;;;10.53;6.42;;;;;;;8.10;76.18;102747.86;1754986;80;21335;-81
2021/10/24 08:34:00;;;;;;;11.50;7.67;;;;;;;8.21;76.10;102749.00;1755250;80;21571;-82
2021/10/24 08:36:27;;;;;;;13.13;7.70;;;;;;;8.27;76.00;102745.05;1755259;80;21789;-83
2021/10/24 08:38:55;;;;;;;10.90;7.22;;;;;;;8.34;75.98;102751.63;1755290;80;21038;-81
2021/10/24 08:45:23;;;;;;;16.27;8.80;;;;;;;8.45;75.80;102755.91;1755725;80;21094;-86
2021/10/24 08:47:50;;;;;;;13.93;9.08;;;;;;;8.54;75.97;102758.23;1755885;81;21073;-86
2021/10/24 08:50:20;;;;;;;17.30;8.75;;;;;;;8.58;75.86;102756.69;1755699;81;21740;-85
2021/10/24 08:52:45;;;;;;;18.05;9.35;;;;;;;8.64;75.90;102757.11;1724800;82;21149;-85
2021/10/24 08:55:13;;;;;;;16.50;8.93;;;;;;;8.70;75.87;102753.56;1779165;79;21041;-85
2021/10/24 08:57:40;;;;;;;16.32;8.45;;;;;;;8.73;75.79;102755.98;1791294;79;21058;-86
2021/10/24 09:00:09;;;;;;;14.15;8.05;;;;;;;8.79;75.76;102762.04;1754717;79;21210;-86
2021/10/24 09:02:56;;;;;;;12.05;7.40;;;;;;;8.85;75.89;102765.47;1724894;82;22478;-86
2021/10/24 09:05:40;;;;;;;13.55;8.05;;;;;;;8.92;75.79;102758.48;1752635;79;21023;-85
2021/10/24 09:08:16;;;;;;;12.25;8.98;;;;;;;9.00;75.82;102756.34;1725328;83;21052;-86
2021/10/24 09:10:49;;;;;;;14.07;8.10;;;;;;;9.06;75.65;102761.56;1789311;79;21034;-86
2021/10/24 09:13:19;;;;;;;17.45;11.95;;;;;;;9.13;75.73;102758.52;1795537;79;21648;-86
2021/10/24 09:16:06;;;;;;;14.35;9.43;;;;;;;9.21;75.68;102764.67;1812482;79;21745;-85
2021/10/24 09:18:39;;;;;;;14.90;8.78;;;;;;;9.29;75.59;102764.34;1778460;80;21109;-86
2021/10/24 09:21:20;;;;;;;16.93;8.95;;;;;;;9.39;75.60;102763.61;1776109;80;21163;-86
2021/10/24 09:23:53;;;;;;;11.63;5.95;;;;;;;9.48;75.52;102766.81;1812252;79;21082;-86
2021/10/24 09:26:26;;;;;;;12.60;6.35;;;;;;;9.60;75.53;102771.91;1778868;80;21023;-86
2021/10/24 09:29:03;;;;;;;12.43;5.37;;;;;;;9.71;75.46;102763.84;1779040;80;21744;-86
2021/10/24 09:31:39;;;;;;;10.75;5.95;;;;;;;9.83;75.27;102759.73;1811959;79;20980;-86
2021/10/24 09:34:22;;;;;;;10.90;5.20;;;;;;;9.96;75.16;102762.69;1811844;79;21097;-86
2021/10/24 09:36:54;;;;;;;10.58;4.95;;;;;;;10.09;75.04;102765.23;1810802;79;21305;-85
2021/10/24 09:39:23;;;;;;;11.60;5.00;;;;;;;10.25;75.05;102760.48;1778965;80;21031;-86
2021/10/24 09:41:50;;;;;;;13.72;5.50;;;;;;;10.40;74.81;102763.14;1812231;79;22608;-86
2021/10/24 09:44:19;;;;;;;8.68;4.97;;;;;;;10.53;74.63;102757.24;1778969;79;21086;-86
2021/10/24 09:46:58;;;;;;;10.88;4.53;;;;;;;10.64;74.46;102757.44;1778983;79;21554;-86
2021/10/24 09:49:26;;;;;;;10.32;4.37;;;;;;;10.75;74.38;102760.70;1778912;79;21052;-85
2021/10/24 09:51:53;;;;;;;9.25;3.80;;;;;;;10.83;74.03;102756.37;1778891;79;22289;-86
2021/10/24 09:54:25;;;;;;;12.28;4.55;;;;;;;10.89;73.79;102751.43;1778801;80;21727;-85
2021/10/24 09:56:52;;;;;;;21.07;5.47;;;;;;;10.94;73.66;102744.19;1812273;79;21540;-85
2021/10/24 09:59:22;;;;;;;15.08;5.45;;;;;;;11.02;73.60;102750.39;1812084;79;21639;-85
2021/10/24 10:01:52;;;;;;;9.60;4.03;;;;;;;11.08;73.51;102750.72;1812194;79;21083;-86
2021/10/24 10:04:21;;;;;;;9.38;3.65;;;;;;;11.17;73.34;102754.70;1812168;78;21069;-85
2021/10/24 10:06:50;;;;;;;10.63;4.58;;;;;;;11.19;73.10;102751.73;1778600;79;21817;-85
2021/10/24 10:09:16;;;;;;;13.83;6.50;;;;;;;11.20;72.91;102745.62;1812105;79;21078;-85
2021/10/24 10:11:55;;;;;;;11.22;5.58;;;;;;;11.21;72.81;102742.17;1778960;80;21051;-86
2021/10/24 10:14:27;;;;;;;34.67;16.00;;;;;;;11.21;72.75;102741.76;1778803;80;21118;-85
2021/10/24 10:17:04;;;;;;;71.37;37.15;;;;;;;11.22;72.48;102747.54;1778935;79;21062;-85
2021/10/24 10:19:39;;;;;;;22.85;10.43;;;;;;;11.20;72.15;102745.62;1776729;80;21729;-86
2021/10/24 10:22:31;;;;;;;30.35;14.47;;;;;;;11.20;72.00;102742.98;1812019;79;21604;-86
2021/10/24 10:25:01;;;;;;;33.08;13.93;;;;;;;11.18;71.84;102732.35;1778854;79;21047;-84
2021/10/24 10:27:36;;;;;;;72.97;36.73;;;;;;;11.15;71.58;102729.95;1778791;80;20996;-85
2021/10/24 10:30:10;;;;;;;83.72;38.20;;;;;;;11.15;71.57;102739.18;1778560;79;21102;-85
2021/10/24 10:32:49;;;;;;;108.12;45.78;;;;;;;11.14;71.40;102734.75;1811512;77;21793;-86
2021/10/24 10:35:22;;;;;;;35.63;15.85;;;;;;;11.15;71.40;102738.80;1778481;80;21576;-86
2021/10/24 10:37:56;;;;;;;36.95;14.43;;;;;;;11.18;71.36;102730.14;1811353;78;21582;-85
2021/10/24 10:40:33;;;;;;;34.88;16.15;;;;;;;11.22;71.16;102734.75;1810027;79;21550;-85
2021/10/24 10:43:20;;;;;;;38.30;14.40;;;;;;;11.24;71.08;102729.14;1786119;79;21594;-85
2021/10/24 10:46:05;;;;;;;29.45;13.20;;;;;;;11.31;71.05;102733.92;1786813;80;21769;-88
2021/10/24 10:48:43;;;;;;;35.58;13.53;;;;;;;11.37;70.85;102739.52;1787293;79;21069;-86
2021/10/24 10:51:16;;;;;;;29.85;12.45;;;;;;;11.42;70.58;102739.78;1786867;79;21054;-88
2021/10/24 10:53:53;;;;;;;35.17;15.00;;;;;;;11.43;70.41;102737.63;1787530;80;21176;-88
2021/10/24 10:56:24;;;;;;;46.40;20.85;;;;;;;11.42;70.14;102739.78;1786789;80;21071;-87
2021/10/24 10:58:54;;;;;;;24.32;10.58;;;;;;;11.41;70.01;102737.56;1787186;80;21743;-83
2021/10/24 11:01:34;;;;;;;38.40;16.27;;;;;;;11.41;69.88;102737.95;1785891;80;21019;-84
2021/10/24 11:04:18;;;;;;;101.45;54.50;;;;;;;11.43;69.91;102725.37;1751742;80;21188;-84
2021/10/24 11:06:58;;;;;;;59.38;29.25;;;;;;;11.48;69.89;102722.53;1786844;79;21071;-84
2021/10/24 11:09:45;;;;;;;47.45;23.18;;;;;;;11.56;69.78;102731.27;1786934;80;21050;-85
2021/10/24 11:12:38;;;;;;;76.62;43.48;;;;;;;11.62;69.44;102725.02;1787099;80;22683;-83
2021/10/24 11:15:16;;;;;;;43.48;22.80;;;;;;;11.66;69.22;102724.35;1787129;79;21124;-83
2021/10/24 11:17:48;;;;;;;42.98;21.70;;;;;;;11.73;68.92;102729.13;1790819;79;21497;-84
2021/10/24 11:20:18;;;;;;;21.02;10.93;;;;;;;11.77;68.73;102725.81;1778727;80;21031;-84
2021/10/24 11:22:55;;;;;;;68.07;39.65;;;;;;;11.83;68.66;102727.44;1778826;80;21667;-83
2021/10/24 11:25:28;;;;;;;30.02;15.20;;;;;;;11.89;68.47;102725.53;1774590;80;22024;-82
2021/10/24 11:27:57;;;;;;;12.23;5.37;;;;;;;11.93;68.20;102727.52;1811556;79;21038;-83
2021/10/24 11:30:24;;;;;;;11.28;5.62;;;;;;;11.94;67.98;102722.75;1811898;79;21138;-83
2021/10/24 11:32:54;;;;;;;15.90;5.50;;;;;;;11.97;67.86;102719.35;1778686;79;21145;-83
2021/10/24 11:35:22;;;;;;;11.88;5.20;;;;;;;11.98;67.66;102723.40;1778666;80;21070;-84
2021/10/24 11:38:03;;;;;;;16.52;5.15;;;;;;;11.98;67.48;102711.94;1778468;80;21801;-83
2021/10/24 11:40:35;;;;;;;9.55;4.40;;;;;;;11.97;67.14;102716.29;1778469;80;21066;-83
2021/10/24 11:43:17;;;;;;;13.43;6.55;;;;;;;11.96;66.85;102720.20;1745647;80;21062;-84
2021/10/24 11:45:54;;;;;;;23.62;13.58;;;;;;;11.93;66.65;102710.80;1778564;80;21012;-84